TXL weather

Berlin-Tegel Airport
Berlin, Berlin, Germany

Public forecast

Using degrees Celsius for public forecast. Weather courtesy of forecast.io.

Current aviation weather report (METAR) for Berlin-Tegel Airport

Retrieved 2020/02/23 01:20 UTC (35 minutes ago):

EDDT 230120Z 26015KT 9999 BKN031 08/04 Q1013

Aviation forecast (TAF) for Berlin-Tegel Airport

Retrieved 2020-02-23 00:27 UTC (1 hour ago):

TAF EDDT 222300Z 2300/2324 26015G30KT 9999 SCT030 BECMG 2309/2312 24012KT PROB40 TEMPO 2310/2317 RA BECMG 2315/2318 29015G25KT BKN011 TEMPO 2320/2324 29020G30KT